sensor_id;sensor_type;location;lat;lon;timestamp;temperature;humidity
10046;DHT22;5063;50.878;4.742;2024-01-15T00:02:20;2.30;99.90
10046;DHT22;5063;50.878;4.742;2024-01-15T00:04:46;2.40;99.90
10046;DHT22;5063;50.878;4.742;2024-01-15T00:07:12;2.50;99.90
10046;DHT22;5063;50.878;4.742;2024-01-15T00:09:37;2.30;99.90
10046;DHT22;5063;50.878;4.742;2024-01-15T00:12:03;2.00;99.90
10046;DHT22;5063;50.878;4.742;2024-01-15T00:14:29;2.40;99.90
10046;DHT22;5063;50.878;4.742;2024-01-15T00:16:55;2.40;99.90
10046;DHT22;5063;50.878;4.742;2024-01-15T00:19:21;2.70;99.90
10046;DHT22;5063;50.878;4.742;2024-01-15T00:21:47;2.50;99.90
10046;DHT22;5063;50.878;4.742;2024-01-15T00:24:13;2.70;99.90
10046;DHT22;5063;50.878;4.742;2024-01-15T00:26:40;2.60;99.90
10046;DHT22;5063;50.878;4.742;2024-01-15T00:29:07;2.70;99.90
10046;DHT22;5063;50.878;4.742;2024-01-15T00:31:33;2.60;99.90
10046;DHT22;5063;50.878;4.742;2024-01-15T00:33:59;2.60;99.90
10046;DHT22;5063;50.878;4.742;2024-01-15T00:36:25;2.30;99.90
10046;DHT22;5063;50.878;4.742;2024-01-15T00:38:50;2.70;99.90
10046;DHT22;5063;50.878;4.742;2024-01-15T00:41:17;2.70;99.90
10046;DHT22;5063;50.878;4.742;2024-01-15T00:43:44;2.70;99.90
10046;DHT22;5063;50.878;4.742;2024-01-15T00:46:10;2.80;99.90
10046;DHT22;5063;50.878;4.742;2024-01-15T00:48:36;2.80;99.90
10046;DHT22;5063;50.878;4.742;2024-01-15T00:51:02;2.90;99.90
10046;DHT22;5063;50.878;4.742;2024-01-15T00:53:28;2.80;99.90
10046;DHT22;5063;50.878;4.742;2024-01-15T00:55:53;2.80;99.90
10046;DHT22;5063;50.878;4.742;2024-01-15T00:58:19;3.00;99.90
10046;DHT22;5063;50.878;4.742;2024-01-15T01:00:45;2.90;99.90
10046;DHT22;5063;50.878;4.742;2024-01-15T01:03:10;3.00;99.90
10046;DHT22;5063;50.878;4.742;2024-01-15T01:05:36;2.90;99.90
10046;DHT22;5063;50.878;4.742;2024-01-15T01:08:03;2.90;99.90
10046;DHT22;5063;50.878;4.742;2024-01-15T01:10:29;2.90;99.90
10046;DHT22;5063;50.878;4.742;2024-01-15T01:12:54;2.90;99.90
10046;DHT22;5063;50.878;4.742;2024-01-15T01:15:22;2.40;99.90
10046;DHT22;5063;50.878;4.742;2024-01-15T01:17:47;3.10;99.90
10046;DHT22;5063;50.878;4.742;2024-01-15T01:20:13;3.00;99.90
10046;DHT22;5063;50.878;4.742;2024-01-15T01:22:40;2.80;99.90
10046;DHT22;5063;50.878;4.742;2024-01-15T01:25:06;2.90;99.90
10046;DHT22;5063;50.878;4.742;2024-01-15T01:27:32;3.00;99.90
10046;DHT22;5063;50.878;4.742;2024-01-15T01:29:58;2.90;99.90
10046;DHT22;5063;50.878;4.742;2024-01-15T01:32:24;3.10;99.90
10046;DHT22;5063;50.878;4.742;2024-01-15T01:34:49;2.90;99.90
10046;DHT22;5063;50.878;4.742;2024-01-15T01:37:15;3.20;99.90
10046;DHT22;5063;50.878;4.742;2024-01-15T01:39:41;2.80;99.90
10046;DHT22;5063;50.878;4.742;2024-01-15T01:42:07;2.80;99.90
10046;DHT22;5063;50.878;4.742;2024-01-15T01:44:33;2.60;99.90
10046;DHT22;5063;50.878;4.742;2024-01-15T01:46:59;2.70;99.90
10046;DHT22;5063;50.878;4.742;2024-01-15T01:49:26;2.60;99.90
10046;DHT22;5063;50.878;4.742;2024-01-15T01:51:52;2.60;99.90
10046;DHT22;5063;50.878;4.742;2024-01-15T01:54:20;2.50;99.90
10046;DHT22;5063;50.878;4.742;2024-01-15T01:56:47;2.60;99.90
10046;DHT22;5063;50.878;4.742;2024-01-15T01:59:13;2.70;99.90
10046;DHT22;5063;50.878;4.742;2024-01-15T02:01:40;2.70;99.90
10046;DHT22;5063;50.878;4.742;2024-01-15T02:04:06;2.50;99.90
10046;DHT22;5063;50.878;4.742;2024-01-15T02:06:32;2.70;99.90
10046;DHT22;5063;50.878;4.742;2024-01-15T02:08:58;2.60;99.90
10046;DHT22;5063;50.878;4.742;2024-01-15T02:11:24;2.50;99.90
10046;DHT22;5063;50.878;4.742;2024-01-15T02:13:50;2.40;99.90
10046;DHT22;5063;50.878;4.742;2024-01-15T02:16:16;2.30;99.90
10046;DHT22;5063;50.878;4.742;2024-01-15T02:18:44;2.40;99.90
10046;DHT22;5063;50.878;4.742;2024-01-15T02:21:10;2.60;99.90
10046;DHT22;5063;50.878;4.742;2024-01-15T02:23:37;2.30;99.90
10046;DHT22;5063;50.878;4.742;2024-01-15T02:26:05;2.50;99.90
10046;DHT22;5063;50.878;4.742;2024-01-15T02:28:30;2.40;99.90
10046;DHT22;5063;50.878;4.742;2024-01-15T02:30:58;2.60;99.90
10046;DHT22;5063;50.878;4.742;2024-01-15T02:33:24;2.50;99.90
10046;DHT22;5063;50.878;4.742;2024-01-15T02:35:50;2.50;99.90
10046;DHT22;5063;50.878;4.742;2024-01-15T02:38:16;2.70;99.90
10046;DHT22;5063;50.878;4.742;2024-01-15T02:40:43;2.50;99.90
10046;DHT22;5063;50.878;4.742;2024-01-15T02:43:09;2.60;99.90
10046;DHT22;5063;50.878;4.742;2024-01-15T02:45:35;2.50;99.90
10046;DHT22;5063;50.878;4.742;2024-01-15T02:48:01;2.60;99.90
10046;DHT22;5063;50.878;4.742;2024-01-15T02:50:26;2.60;99.90
10046;DHT22;5063;50.878;4.742;2024-01-15T02:52:52;2.50;99.90
10046;DHT22;5063;50.878;4.742;2024-01-15T02:55:18;2.70;99.90
10046;DHT22;5063;50.878;4.742;2024-01-15T02:57:44;1.80;99.90
10046;DHT22;5063;50.878;4.742;2024-01-15T03:00:09;2.70;99.90
10046;DHT22;5063;50.878;4.742;2024-01-15T03:02:39;2.50;99.90
10046;DHT22;5063;50.878;4.742;2024-01-15T03:05:08;2.50;99.90
10046;DHT22;5063;50.878;4.742;2024-01-15T03:07:34;2.50;99.90
10046;DHT22;5063;50.878;4.742;2024-01-15T03:10:00;2.50;99.90
10046;DHT22;5063;50.878;4.742;2024-01-15T03:12:26;2.50;99.90
10046;DHT22;5063;50.878;4.742;2024-01-15T03:14:51;2.60;99.90
10046;DHT22;5063;50.878;4.742;2024-01-15T03:17:17;2.50;99.90
10046;DHT22;5063;50.878;4.742;2024-01-15T03:19:43;2.50;99.90
10046;DHT22;5063;50.878;4.742;2024-01-15T03:22:08;2.70;99.90
10046;DHT22;5063;50.878;4.742;2024-01-15T03:24:34;2.60;99.90
10046;DHT22;5063;50.878;4.742;2024-01-15T03:27:01;2.50;99.90
10046;DHT22;5063;50.878;4.742;2024-01-15T03:29:26;2.60;99.90
10046;DHT22;5063;50.878;4.742;2024-01-15T03:31:52;2.40;99.90
10046;DHT22;5063;50.878;4.742;2024-01-15T03:34:18;2.50;99.90
10046;DHT22;5063;50.878;4.742;2024-01-15T03:36:44;2.60;99.90
10046;DHT22;5063;50.878;4.742;2024-01-15T03:39:10;2.50;99.90
10046;DHT22;5063;50.878;4.742;2024-01-15T03:41:35;2.50;99.90
10046;DHT22;5063;50.878;4.742;2024-01-15T03:44:01;2.50;99.90
10046;DHT22;5063;50.878;4.742;2024-01-15T03:46:27;2.60;99.90
10046;DHT22;5063;50.878;4.742;2024-01-15T03:48:53;2.60;99.90
10046;DHT22;5063;50.878;4.742;2024-01-15T03:51:19;2.50;99.90
10046;DHT22;5063;50.878;4.742;2024-01-15T03:53:44;2.40;99.90
10046;DHT22;5063;50.878;4.742;2024-01-15T03:56:10;2.50;99.90
10046;DHT22;5063;50.878;4.742;2024-01-15T03:58:36;2.70;99.90
10046;DHT22;5063;50.878;4.742;2024-01-15T04:01:02;2.70;99.90
10046;DHT22;5063;50.878;4.742;2024-01-15T04:03:27;2.40;99.90
10046;DHT22;5063;50.878;4.742;2024-01-15T04:05:53;2.40;99.90
10046;DHT22;5063;50.878;4.742;2024-01-15T04:08:19;2.50;99.90
10046;DHT22;5063;50.878;4.742;2024-01-15T04:10:45;2.50;99.90
10046;DHT22;5063;50.878;4.742;2024-01-15T04:13:10;2.60;99.90
10046;DHT22;5063;50.878;4.742;2024-01-15T04:15:36;2.40;99.90
10046;DHT22;5063;50.878;4.742;2024-01-15T04:18:03;2.40;99.90
10046;DHT22;5063;50.878;4.742;2024-01-15T04:20:29;2.30;99.90
10046;DHT22;5063;50.878;4.742;2024-01-15T04:22:55;2.40;99.90
10046;DHT22;5063;50.878;4.742;2024-01-15T04:25:20;2.40;99.90
10046;DHT22;5063;50.878;4.742;2024-01-15T04:27:46;2.30;99.90
10046;DHT22;5063;50.878;4.742;2024-01-15T04:30:12;2.40;99.90
10046;DHT22;5063;50.878;4.742;2024-01-15T04:32:38;2.20;99.90
10046;DHT22;5063;50.878;4.742;2024-01-15T04:35:04;2.20;99.90
10046;DHT22;5063;50.878;4.742;2024-01-15T04:37:29;2.30;99.90
10046;DHT22;5063;50.878;4.742;2024-01-15T04:39:55;2.30;99.90
10046;DHT22;5063;50.878;4.742;2024-01-15T04:42:23;2.10;99.90
10046;DHT22;5063;50.878;4.742;2024-01-15T04:44:49;2.10;99.90
10046;DHT22;5063;50.878;4.742;2024-01-15T04:47:14;2.30;99.90
10046;DHT22;5063;50.878;4.742;2024-01-15T04:49:40;2.00;99.90
10046;DHT22;5063;50.878;4.742;2024-01-15T04:52:06;2.00;99.90
10046;DHT22;5063;50.878;4.742;2024-01-15T04:54:32;1.80;99.90
10046;DHT22;5063;50.878;4.742;2024-01-15T04:56:57;1.70;99.90
10046;DHT22;5063;50.878;4.742;2024-01-15T04:59:23;1.70;99.90
10046;DHT22;5063;50.878;4.742;2024-01-15T05:01:49;1.60;99.90
10046;DHT22;5063;50.878;4.742;2024-01-15T05:04:15;1.50;99.90
10046;DHT22;5063;50.878;4.742;2024-01-15T05:06:40;1.50;99.90
10046;DHT22;5063;50.878;4.742;2024-01-15T05:09:07;1.40;99.90
10046;DHT22;5063;50.878;4.742;2024-01-15T05:11:32;1.40;99.90
10046;DHT22;5063;50.878;4.742;2024-01-15T05:13:58;1.70;99.90
10046;DHT22;5063;50.878;4.742;2024-01-15T05:16:24;1.40;99.90
10046;DHT22;5063;50.878;4.742;2024-01-15T05:18:49;1.40;99.90
10046;DHT22;5063;50.878;4.742;2024-01-15T05:21:15;1.40;99.90
10046;DHT22;5063;50.878;4.742;2024-01-15T05:23:41;1.60;99.90
10046;DHT22;5063;50.878;4.742;2024-01-15T05:26:07;1.70;99.90
10046;DHT22;5063;50.878;4.742;2024-01-15T05:28:34;2.00;99.90
10046;DHT22;5063;50.878;4.742;2024-01-15T05:31:00;1.60;99.90
10046;DHT22;5063;50.878;4.742;2024-01-15T05:33:26;1.60;99.90
10046;DHT22;5063;50.878;4.742;2024-01-15T05:35:51;1.60;99.90
10046;DHT22;5063;50.878;4.742;2024-01-15T05:38:18;1.60;99.90
10046;DHT22;5063;50.878;4.742;2024-01-15T05:40:44;1.90;99.90
10046;DHT22;5063;50.878;4.742;2024-01-15T05:43:10;1.60;99.90
10046;DHT22;5063;50.878;4.742;2024-01-15T05:45:37;1.60;99.90
10046;DHT22;5063;50.878;4.742;2024-01-15T05:48:03;1.70;99.90
10046;DHT22;5063;50.878;4.742;2024-01-15T05:50:29;1.50;99.90
10046;DHT22;5063;50.878;4.742;2024-01-15T05:52:55;1.50;99.90
10046;DHT22;5063;50.878;4.742;2024-01-15T05:55:20;1.30;99.90
10046;DHT22;5063;50.878;4.742;2024-01-15T05:57:46;1.50;99.90
10046;DHT22;5063;50.878;4.742;2024-01-15T06:00:12;1.40;99.90
10046;DHT22;5063;50.878;4.742;2024-01-15T06:02:38;1.40;99.90
10046;DHT22;5063;50.878;4.742;2024-01-15T06:05:05;1.60;99.90
10046;DHT22;5063;50.878;4.742;2024-01-15T06:07:32;1.60;99.90
10046;DHT22;5063;50.878;4.742;2024-01-15T06:09:57;1.30;99.90
10046;DHT22;5063;50.878;4.742;2024-01-15T06:12:23;1.40;99.90
10046;DHT22;5063;50.878;4.742;2024-01-15T06:14:49;1.40;99.90
10046;DHT22;5063;50.878;4.742;2024-01-15T06:17:14;1.50;99.90
10046;DHT22;5063;50.878;4.742;2024-01-15T06:19:40;1.60;99.90
10046;DHT22;5063;50.878;4.742;2024-01-15T06:22:06;1.30;99.90
10046;DHT22;5063;50.878;4.742;2024-01-15T06:24:32;1.50;99.90
10046;DHT22;5063;50.878;4.742;2024-01-15T06:26:57;1.50;99.90
10046;DHT22;5063;50.878;4.742;2024-01-15T06:29:26;1.50;99.90
10046;DHT22;5063;50.878;4.742;2024-01-15T06:31:52;1.30;99.90
10046;DHT22;5063;50.878;4.742;2024-01-15T06:34:18;1.50;99.90
10046;DHT22;5063;50.878;4.742;2024-01-15T06:36:44;1.20;99.90
10046;DHT22;5063;50.878;4.742;2024-01-15T06:39:10;1.30;99.90
10046;DHT22;5063;50.878;4.742;2024-01-15T06:41:36;1.40;99.90
10046;DHT22;5063;50.878;4.742;2024-01-15T06:44:09;1.30;99.90
10046;DHT22;5063;50.878;4.742;2024-01-15T06:46:35;1.30;99.90
10046;DHT22;5063;50.878;4.742;2024-01-15T06:49:01;1.60;99.90
10046;DHT22;5063;50.878;4.742;2024-01-15T06:51:27;1.30;99.90
10046;DHT22;5063;50.878;4.742;2024-01-15T06:53:52;1.40;99.90
10046;DHT22;5063;50.878;4.742;2024-01-15T06:56:18;1.30;99.90
10046;DHT22;5063;50.878;4.742;2024-01-15T06:58:44;1.30;99.90
10046;DHT22;5063;50.878;4.742;2024-01-15T07:01:10;1.30;99.90
10046;DHT22;5063;50.878;4.742;2024-01-15T07:03:35;1.50;99.90
10046;DHT22;5063;50.878;4.742;2024-01-15T07:06:01;1.30;99.90
10046;DHT22;5063;50.878;4.742;2024-01-15T07:08:27;1.40;99.90
10046;DHT22;5063;50.878;4.742;2024-01-15T07:10:53;1.50;99.90
10046;DHT22;5063;50.878;4.742;2024-01-15T07:13:18;1.20;99.90
10046;DHT22;5063;50.878;4.742;2024-01-15T07:15:44;1.60;99.90
10046;DHT22;5063;50.878;4.742;2024-01-15T07:18:09;1.30;99.90
10046;DHT22;5063;50.878;4.742;2024-01-15T07:20:35;1.20;99.90
10046;DHT22;5063;50.878;4.742;2024-01-15T07:23:01;1.30;99.90
10046;DHT22;5063;50.878;4.742;2024-01-15T07:25:27;1.20;99.90
10046;DHT22;5063;50.878;4.742;2024-01-15T07:27:53;1.30;99.90
10046;DHT22;5063;50.878;4.742;2024-01-15T07:30:19;1.30;99.90
10046;DHT22;5063;50.878;4.742;2024-01-15T07:32:47;1.10;99.90
10046;DHT22;5063;50.878;4.742;2024-01-15T07:35:14;1.60;99.90
10046;DHT22;5063;50.878;4.742;2024-01-15T07:37:41;1.20;99.90
10046;DHT22;5063;50.878;4.742;2024-01-15T07:40:07;1.20;99.90
10046;DHT22;5063;50.878;4.742;2024-01-15T07:42:34;1.20;99.90
10046;DHT22;5063;50.878;4.742;2024-01-15T07:45:00;1.30;99.90
10046;DHT22;5063;50.878;4.742;2024-01-15T07:47:26;1.10;99.90
10046;DHT22;5063;50.878;4.742;2024-01-15T07:49:53;1.30;99.90
10046;DHT22;5063;50.878;4.742;2024-01-15T07:52:19;1.40;99.90
10046;DHT22;5063;50.878;4.742;2024-01-15T07:54:45;1.30;99.90
10046;DHT22;5063;50.878;4.742;2024-01-15T07:57:11;1.50;99.90
10046;DHT22;5063;50.878;4.742;2024-01-15T07:59:36;1.30;99.90
10046;DHT22;5063;50.878;4.742;2024-01-15T08:02:03;1.40;99.90
10046;DHT22;5063;50.878;4.742;2024-01-15T08:04:29;1.40;99.90
10046;DHT22;5063;50.878;4.742;2024-01-15T08:06:55;1.40;99.90
10046;DHT22;5063;50.878;4.742;2024-01-15T08:09:22;1.50;99.90
10046;DHT22;5063;50.878;4.742;2024-01-15T08:11:48;1.70;99.90
10046;DHT22;5063;50.878;4.742;2024-01-15T08:14:15;1.60;99.90
10046;DHT22;5063;50.878;4.742;2024-01-15T08:16:41;1.80;99.90
10046;DHT22;5063;50.878;4.742;2024-01-15T08:19:06;2.10;99.90
10046;DHT22;5063;50.878;4.742;2024-01-15T08:21:32;2.10;99.90
10046;DHT22;5063;50.878;4.742;2024-01-15T08:23:59;1.60;99.90
10046;DHT22;5063;50.878;4.742;2024-01-15T08:26:25;2.10;99.90
10046;DHT22;5063;50.878;4.742;2024-01-15T08:28:51;2.00;99.90
10046;DHT22;5063;50.878;4.742;2024-01-15T08:31:17;2.10;99.90
10046;DHT22;5063;50.878;4.742;2024-01-15T08:33:43;2.20;99.90
10046;DHT22;5063;50.878;4.742;2024-01-15T08:36:12;2.00;99.90
10046;DHT22;5063;50.878;4.742;2024-01-15T08:38:38;2.30;99.90
10046;DHT22;5063;50.878;4.742;2024-01-15T08:41:04;2.40;99.90
10046;DHT22;5063;50.878;4.742;2024-01-15T08:43:30;2.40;99.90
10046;DHT22;5063;50.878;4.742;2024-01-15T08:45:59;2.40;99.90
10046;DHT22;5063;50.878;4.742;2024-01-15T08:48:25;2.50;99.90
10046;DHT22;5063;50.878;4.742;2024-01-15T08:50:53;2.30;99.90
10046;DHT22;5063;50.878;4.742;2024-01-15T08:53:19;2.30;99.90
10046;DHT22;5063;50.878;4.742;2024-01-15T08:55:44;2.50;99.90
10046;DHT22;5063;50.878;4.742;2024-01-15T08:58:11;2.40;99.90
10046;DHT22;5063;50.878;4.742;2024-01-15T09:00:36;2.60;99.90
10046;DHT22;5063;50.878;4.742;2024-01-15T09:03:02;2.60;99.90
10046;DHT22;5063;50.878;4.742;2024-01-15T09:05:28;2.80;99.90
10046;DHT22;5063;50.878;4.742;2024-01-15T09:07:54;2.80;99.90
10046;DHT22;5063;50.878;4.742;2024-01-15T09:10:20;2.90;99.90
10046;DHT22;5063;50.878;4.742;2024-01-15T09:12:46;3.00;99.90
10046;DHT22;5063;50.878;4.742;2024-01-15T09:15:12;3.10;99.90
10046;DHT22;5063;50.878;4.742;2024-01-15T09:17:38;3.00;99.90
10046;DHT22;5063;50.878;4.742;2024-01-15T09:20:04;3.30;99.90
10046;DHT22;5063;50.878;4.742;2024-01-15T09:22:31;3.20;99.90
10046;DHT22;5063;50.878;4.742;2024-01-15T09:24:57;3.50;99.90
10046;DHT22;5063;50.878;4.742;2024-01-15T09:27:23;3.30;99.90
10046;DHT22;5063;50.878;4.742;2024-01-15T09:29:52;3.30;99.90
10046;DHT22;5063;50.878;4.742;2024-01-15T09:32:17;3.30;99.90
10046;DHT22;5063;50.878;4.742;2024-01-15T09:34:45;3.10;99.90
10046;DHT22;5063;50.878;4.742;2024-01-15T09:37:12;3.20;99.90
10046;DHT22;5063;50.878;4.742;2024-01-15T09:39:37;3.00;99.90
10046;DHT22;5063;50.878;4.742;2024-01-15T09:42:04;3.00;99.90
10046;DHT22;5063;50.878;4.742;2024-01-15T09:44:31;3.00;99.90
10046;DHT22;5063;50.878;4.742;2024-01-15T09:46:57;2.70;99.90
10046;DHT22;5063;50.878;4.742;2024-01-15T09:49:23;2.70;99.90
10046;DHT22;5063;50.878;4.742;2024-01-15T09:51:49;2.70;99.90
10046;DHT22;5063;50.878;4.742;2024-01-15T09:54:16;3.00;99.90
10046;DHT22;5063;50.878;4.742;2024-01-15T09:56:51;2.80;99.90
10046;DHT22;5063;50.878;4.742;2024-01-15T09:59:22;2.80;99.90
10046;DHT22;5063;50.878;4.742;2024-01-15T10:01:50;3.10;99.90
10046;DHT22;5063;50.878;4.742;2024-01-15T10:04:16;3.10;99.90
10046;DHT22;5063;50.878;4.742;2024-01-15T10:06:44;3.10;99.90
10046;DHT22;5063;50.878;4.742;2024-01-15T10:09:12;3.10;99.90
10046;DHT22;5063;50.878;4.742;2024-01-15T10:11:43;3.40;99.90
10046;DHT22;5063;50.878;4.742;2024-01-15T10:14:10;3.20;99.90
10046;DHT22;5063;50.878;4.742;2024-01-15T10:16:38;3.20;99.90
10046;DHT22;5063;50.878;4.742;2024-01-15T10:19:04;3.30;99.90
10046;DHT22;5063;50.878;4.742;2024-01-15T10:21:32;3.30;99.90
10046;DHT22;5063;50.878;4.742;2024-01-15T10:24:00;3.60;99.90
10046;DHT22;5063;50.878;4.742;2024-01-15T10:26:26;3.40;99.90
10046;DHT22;5063;50.878;4.742;2024-01-15T10:28:52;2.90;99.90
10046;DHT22;5063;50.878;4.742;2024-01-15T10:31:18;3.60;99.90
10046;DHT22;5063;50.878;4.742;2024-01-15T10:33:45;3.70;99.90
10046;DHT22;5063;50.878;4.742;2024-01-15T10:36:10;3.80;99.90
10046;DHT22;5063;50.878;4.742;2024-01-15T10:38:36;3.70;99.90
10046;DHT22;5063;50.878;4.742;2024-01-15T10:41:02;3.70;99.90
10046;DHT22;5063;50.878;4.742;2024-01-15T10:43:28;3.70;99.90
10046;DHT22;5063;50.878;4.742;2024-01-15T10:45:54;3.90;99.90
10046;DHT22;5063;50.878;4.742;2024-01-15T10:48:19;3.60;99.90
10046;DHT22;5063;50.878;4.742;2024-01-15T10:50:46;3.70;99.90
10046;DHT22;5063;50.878;4.742;2024-01-15T10:53:14;3.70;99.90
10046;DHT22;5063;50.878;4.742;2024-01-15T10:55:41;3.90;99.90
10046;DHT22;5063;50.878;4.742;2024-01-15T10:58:08;3.80;99.90
10046;DHT22;5063;50.878;4.742;2024-01-15T11:00:38;4.10;99.90
10046;DHT22;5063;50.878;4.742;2024-01-15T11:03:06;3.70;99.90
10046;DHT22;5063;50.878;4.742;2024-01-15T11:05:41;3.80;99.90
10046;DHT22;5063;50.878;4.742;2024-01-15T11:08:08;4.00;99.90
10046;DHT22;5063;50.878;4.742;2024-01-15T11:16:11;4.20;99.90
10046;DHT22;5063;50.878;4.742;2024-01-15T11:18:39;4.90;99.90
10046;DHT22;5063;50.878;4.742;2024-01-15T11:23:47;4.70;99.90
10046;DHT22;5063;50.878;4.742;2024-01-15T11:26:37;5.00;99.90
10046;DHT22;5063;50.878;4.742;2024-01-15T11:29:29;4.90;99.90
10046;DHT22;5063;50.878;4.742;2024-01-15T11:34:21;5.30;99.90
10046;DHT22;5063;50.878;4.742;2024-01-15T11:37:07;5.10;99.90
10046;DHT22;5063;50.878;4.742;2024-01-15T11:42:00;5.10;99.90
10046;DHT22;5063;50.878;4.742;2024-01-15T11:44:27;5.30;99.90
10046;DHT22;5063;50.878;4.742;2024-01-15T11:47:05;4.90;99.90
10046;DHT22;5063;50.878;4.742;2024-01-15T11:50:00;4.90;99.90
10046;DHT22;5063;50.878;4.742;2024-01-15T11:52:37;5.10;99.90
10046;DHT22;5063;50.878;4.742;2024-01-15T11:55:25;5.10;99.90
10046;DHT22;5063;50.878;4.742;2024-01-15T11:57:53;4.80;99.90
10046;DHT22;5063;50.878;4.742;2024-01-15T12:00:22;4.80;99.90
10046;DHT22;5063;50.878;4.742;2024-01-15T12:02:49;4.90;99.90
10046;DHT22;5063;50.878;4.742;2024-01-15T12:05:17;4.80;99.90
10046;DHT22;5063;50.878;4.742;2024-01-15T12:07:45;4.90;99.90
10046;DHT22;5063;50.878;4.742;2024-01-15T12:10:13;5.00;99.90
10046;DHT22;5063;50.878;4.742;2024-01-15T12:13:04;5.20;99.90
10046;DHT22;5063;50.878;4.742;2024-01-15T12:15:31;5.30;99.90
10046;DHT22;5063;50.878;4.742;2024-01-15T12:17:59;5.20;99.90
10046;DHT22;5063;50.878;4.742;2024-01-15T12:20:26;5.30;99.90
10046;DHT22;5063;50.878;4.742;2024-01-15T12:22:52;5.80;99.90
10046;DHT22;5063;50.878;4.742;2024-01-15T12:25:18;5.90;99.90
10046;DHT22;5063;50.878;4.742;2024-01-15T12:27:45;6.00;99.90
10046;DHT22;5063;50.878;4.742;2024-01-15T12:30:14;5.80;99.90
10046;DHT22;5063;50.878;4.742;2024-01-15T12:32:41;5.80;99.90
10046;DHT22;5063;50.878;4.742;2024-01-15T12:35:08;6.00;99.90
10046;DHT22;5063;50.878;4.742;2024-01-15T12:37:39;5.60;99.90
10046;DHT22;5063;50.878;4.742;2024-01-15T12:40:08;5.60;99.90
10046;DHT22;5063;50.878;4.742;2024-01-15T12:42:37;5.70;99.90
10046;DHT22;5063;50.878;4.742;2024-01-15T12:45:09;5.70;99.90
10046;DHT22;5063;50.878;4.742;2024-01-15T12:47:36;5.80;99.90
10046;DHT22;5063;50.878;4.742;2024-01-15T12:50:02;5.90;99.90
10046;DHT22;5063;50.878;4.742;2024-01-15T12:52:28;5.40;99.90
10046;DHT22;5063;50.878;4.742;2024-01-15T12:54:55;5.50;99.90
10046;DHT22;5063;50.878;4.742;2024-01-15T12:57:20;5.40;99.90
10046;DHT22;5063;50.878;4.742;2024-01-15T12:59:46;5.60;99.90
10046;DHT22;5063;50.878;4.742;2024-01-15T13:02:16;5.30;99.90
10046;DHT22;5063;50.878;4.742;2024-01-15T13:04:42;5.00;99.90
10046;DHT22;5063;50.878;4.742;2024-01-15T13:07:08;4.70;99.90
10046;DHT22;5063;50.878;4.742;2024-01-15T13:09:34;4.40;99.90
10046;DHT22;5063;50.878;4.742;2024-01-15T13:12:02;4.00;99.90
10046;DHT22;5063;50.878;4.742;2024-01-15T13:14:28;3.80;99.90
10046;DHT22;5063;50.878;4.742;2024-01-15T13:16:54;3.60;99.90
10046;DHT22;5063;50.878;4.742;2024-01-15T13:19:20;3.40;99.90
10046;DHT22;5063;50.878;4.742;2024-01-15T13:21:49;3.10;99.90
10046;DHT22;5063;50.878;4.742;2024-01-15T13:24:20;2.90;99.90
10046;DHT22;5063;50.878;4.742;2024-01-15T13:26:45;2.80;99.90
10046;DHT22;5063;50.878;4.742;2024-01-15T13:29:11;2.50;99.90
10046;DHT22;5063;50.878;4.742;2024-01-15T13:31:37;2.50;99.90
10046;DHT22;5063;50.878;4.742;2024-01-15T13:34:03;2.50;99.90
10046;DHT22;5063;50.878;4.742;2024-01-15T13:36:29;2.30;99.90
10046;DHT22;5063;50.878;4.742;2024-01-15T13:38:55;2.70;99.90
10046;DHT22;5063;50.878;4.742;2024-01-15T13:41:21;2.50;99.90
10046;DHT22;5063;50.878;4.742;2024-01-15T13:43:50;2.50;99.90
10046;DHT22;5063;50.878;4.742;2024-01-15T13:46:20;2.50;99.90
10046;DHT22;5063;50.878;4.742;2024-01-15T13:48:47;2.60;99.90
10046;DHT22;5063;50.878;4.742;2024-01-15T13:51:13;2.60;99.90
10046;DHT22;5063;50.878;4.742;2024-01-15T13:53:38;2.60;99.90
10046;DHT22;5063;50.878;4.742;2024-01-15T13:56:06;2.80;99.90
10046;DHT22;5063;50.878;4.742;2024-01-15T13:58:32;2.40;99.90
10046;DHT22;5063;50.878;4.742;2024-01-15T14:01:01;2.50;99.90
10046;DHT22;5063;50.878;4.742;2024-01-15T14:03:26;2.50;99.90
10046;DHT22;5063;50.878;4.742;2024-01-15T14:05:52;2.40;99.90
10046;DHT22;5063;50.878;4.742;2024-01-15T14:08:18;2.20;99.90
10046;DHT22;5063;50.878;4.742;2024-01-15T14:10:44;2.30;99.90
10046;DHT22;5063;50.878;4.742;2024-01-15T14:13:10;2.30;99.90
10046;DHT22;5063;50.878;4.742;2024-01-15T14:15:36;2.40;99.90
10046;DHT22;5063;50.878;4.742;2024-01-15T14:18:02;2.50;99.90
10046;DHT22;5063;50.878;4.742;2024-01-15T14:20:28;2.70;99.90
10046;DHT22;5063;50.878;4.742;2024-01-15T14:22:54;2.60;99.90
10046;DHT22;5063;50.878;4.742;2024-01-15T14:25:20;2.60;99.90
10046;DHT22;5063;50.878;4.742;2024-01-15T14:27:47;2.70;99.90
10046;DHT22;5063;50.878;4.742;2024-01-15T14:30:13;2.80;99.90
10046;DHT22;5063;50.878;4.742;2024-01-15T14:32:44;2.50;99.90
10046;DHT22;5063;50.878;4.742;2024-01-15T14:35:10;2.60;99.90
10046;DHT22;5063;50.878;4.742;2024-01-15T14:37:39;2.70;99.90
10046;DHT22;5063;50.878;4.742;2024-01-15T14:40:06;2.50;99.90
10046;DHT22;5063;50.878;4.742;2024-01-15T14:42:33;2.20;99.90
10046;DHT22;5063;50.878;4.742;2024-01-15T14:44:59;2.10;99.90
10046;DHT22;5063;50.878;4.742;2024-01-15T14:47:25;2.20;99.90
10046;DHT22;5063;50.878;4.742;2024-01-15T14:49:52;2.10;99.90
10046;DHT22;5063;50.878;4.742;2024-01-15T14:52:18;2.10;99.90
10046;DHT22;5063;50.878;4.742;2024-01-15T14:54:44;2.20;99.90
10046;DHT22;5063;50.878;4.742;2024-01-15T14:57:09;2.40;99.90
10046;DHT22;5063;50.878;4.742;2024-01-15T14:59:35;2.50;99.90
10046;DHT22;5063;50.878;4.742;2024-01-15T15:02:01;2.40;99.90
10046;DHT22;5063;50.878;4.742;2024-01-15T15:04:27;2.40;99.90
10046;DHT22;5063;50.878;4.742;2024-01-15T15:06:54;2.30;99.90
10046;DHT22;5063;50.878;4.742;2024-01-15T15:09:19;2.40;99.90
10046;DHT22;5063;50.878;4.742;2024-01-15T15:11:45;2.50;99.90
10046;DHT22;5063;50.878;4.742;2024-01-15T15:14:11;2.60;99.90
10046;DHT22;5063;50.878;4.742;2024-01-15T15:16:36;2.60;99.90
10046;DHT22;5063;50.878;4.742;2024-01-15T15:19:02;2.70;99.90
10046;DHT22;5063;50.878;4.742;2024-01-15T15:21:28;2.60;99.90
10046;DHT22;5063;50.878;4.742;2024-01-15T15:23:55;2.70;99.90
10046;DHT22;5063;50.878;4.742;2024-01-15T15:26:21;2.60;99.90
10046;DHT22;5063;50.878;4.742;2024-01-15T15:28:46;2.60;99.90
10046;DHT22;5063;50.878;4.742;2024-01-15T15:31:12;2.70;99.90
10046;DHT22;5063;50.878;4.742;2024-01-15T15:33:38;2.50;99.90
10046;DHT22;5063;50.878;4.742;2024-01-15T15:36:04;2.40;99.90
10046;DHT22;5063;50.878;4.742;2024-01-15T15:38:33;2.60;99.90
10046;DHT22;5063;50.878;4.742;2024-01-15T15:41:00;2.60;99.90
10046;DHT22;5063;50.878;4.742;2024-01-15T15:43:29;2.40;99.90
10046;DHT22;5063;50.878;4.742;2024-01-15T15:45:56;2.30;99.90
10046;DHT22;5063;50.878;4.742;2024-01-15T15:48:23;2.50;99.90
10046;DHT22;5063;50.878;4.742;2024-01-15T15:50:50;2.50;99.90
10046;DHT22;5063;50.878;4.742;2024-01-15T15:53:16;2.50;99.90
10046;DHT22;5063;50.878;4.742;2024-01-15T15:55:41;2.60;99.90
10046;DHT22;5063;50.878;4.742;2024-01-15T15:58:07;2.70;99.90
10046;DHT22;5063;50.878;4.742;2024-01-15T16:00:33;2.50;99.90
10046;DHT22;5063;50.878;4.742;2024-01-15T16:02:58;2.50;99.90
10046;DHT22;5063;50.878;4.742;2024-01-15T16:05:24;2.40;99.90
10046;DHT22;5063;50.878;4.742;2024-01-15T16:07:50;2.50;99.90
10046;DHT22;5063;50.878;4.742;2024-01-15T16:10:16;2.50;99.90
10046;DHT22;5063;50.878;4.742;2024-01-15T16:12:43;2.30;99.90